Time;durP1;ratioP1;P1;durP2;ratioP2;P2;SDS_P1;SDS_P2;PMS_P1;PMS_P2;Temp;Humidity;BMP_temperature;BMP_pressure;BME280_temperature;BME280_humidity;BME280_pressure;Samples;Min_cycle;Max_cycle;Signal;HPM_P1;HPM_P2
2023/05/08 00:02:05;;;;;;;;;;;;;;;14.09;100.00;102036.09;4978393;28;19921;-71
2023/05/08 00:04:30;;;;;;;;;;;;;;;14.09;100.00;102039.69;4981944;28;19922;-71
2023/05/08 00:06:56;;;;;;;;;;;;;;;14.08;100.00;102040.66;4979000;28;20035;-71
2023/05/08 00:09:21;;;;;;;;;;;;;;;14.08;100.00;102032.56;4984183;28;20012;-71
2023/05/08 00:11:46;;;;;;;;;;;;;;;14.10;100.00;102040.53;4981222;28;19922;-71
2023/05/08 00:14:11;;;;;;;;;;;;;;;14.10;100.00;102036.00;4984547;28;20214;-71
2023/05/08 00:16:37;;;;;;;;;;;;;;;14.10;100.00;102037.84;4989084;28;19925;-71
2023/05/08 00:19:02;;;;;;;;;;;;;;;14.13;100.00;102034.91;4971471;28;19922;-71
2023/05/08 00:21:28;;;;;;;;;;;;;;;14.08;100.00;102028.97;4980985;28;19928;-71
2023/05/08 00:23:53;;;;;;;;;;;;;;;14.03;100.00;102031.19;4989176;28;19932;-71
2023/05/08 00:26:18;;;;;;;;;;;;;;;14.05;100.00;102029.22;4987042;28;20324;-71
2023/05/08 00:28:43;;;;;;;;;;;;;;;14.05;100.00;102030.09;4986424;28;20320;-71
2023/05/08 00:31:08;;;;;;;;;;;;;;;14.08;100.00;102034.38;4962803;28;20289;-71
2023/05/08 00:33:34;;;;;;;;;;;;;;;14.08;100.00;102034.38;4982751;28;20280;-71
2023/05/08 00:36:00;;;;;;;;;;;;;;;14.02;100.00;102035.72;4982697;28;20004;-71
2023/05/08 00:38:25;;;;;;;;;;;;;;;13.95;100.00;102035.31;4982129;28;19923;-71
2023/05/08 00:40:50;;;;;;;;;;;;;;;13.95;100.00;102046.09;4980669;28;19965;-71
2023/05/08 00:43:15;;;;;;;;;;;;;;;13.92;100.00;102032.81;4983399;28;20021;-71
2023/05/08 00:45:41;;;;;;;;;;;;;;;13.93;100.00;102033.66;4981758;28;19922;-71
2023/05/08 00:48:06;;;;;;;;;;;;;;;13.92;100.00;102030.13;4965119;28;19940;-71
2023/05/08 00:50:31;;;;;;;;;;;;;;;13.94;100.00;102027.31;4981584;28;20292;-71
2023/05/08 00:52:57;;;;;;;;;;;;;;;13.87;100.00;102020.66;4980821;28;19922;-71
2023/05/08 00:55:22;;;;;;;;;;;;;;;13.88;100.00;102031.31;4963119;28;19921;-70
2023/05/08 00:57:47;;;;;;;;;;;;;;;13.87;100.00;102029.59;4975235;28;19933;-71
2023/05/08 01:00:13;;;;;;;;;;;;;;;13.90;100.00;102028.53;4980716;28;19989;-72
2023/05/08 01:02:38;;;;;;;;;;;;;;;13.91;100.00;102028.41;4980682;28;19988;-71
2023/05/08 01:05:04;;;;;;;;;;;;;;;13.91;100.00;102028.41;4980805;28;19925;-71
2023/05/08 01:07:29;;;;;;;;;;;;;;;13.92;100.00;102029.25;4979341;28;19925;-71
2023/05/08 01:09:54;;;;;;;;;;;;;;;13.95;100.00;102029.03;4977471;28;20357;-71
2023/05/08 01:12:22;;;;;;;;;;;;;;;13.91;100.00;102028.41;4978027;28;20412;-71
2023/05/08 01:15:05;;;;;;;;;;;;;;;13.91;100.00;102022.13;4978373;28;20027;-71
2023/05/08 01:17:37;;;;;;;;;;;;;;;13.89;100.00;102021.41;4976617;28;19925;-71
2023/05/08 01:20:21;;;;;;;;;;;;;;;13.87;100.00;102013.41;4979079;28;20364;-71
2023/05/08 01:22:53;;;;;;;;;;;;;;;13.83;100.00;102011.88;4983750;28;19921;-71
2023/05/08 01:25:19;;;;;;;;;;;;;;;13.82;100.00;102012.88;4980820;28;20369;-71
2023/05/08 01:27:50;;;;;;;;;;;;;;;13.77;100.00;102015.91;4975019;28;19929;-70
2023/05/08 01:30:25;;;;;;;;;;;;;;;13.73;100.00;102021.66;4982198;28;20020;-70
2023/05/08 01:33:01;;;;;;;;;;;;;;;13.72;100.00;102022.63;4981335;28;20394;-71
2023/05/08 01:35:28;;;;;;;;;;;;;;;13.70;100.00;102024.56;4978926;28;19926;-71
2023/05/08 01:38:08;;;;;;;;;;;;;;;13.72;100.00;102028.03;4975632;28;19929;-71
2023/05/08 01:40:33;;;;;;;;;;;;;;;13.77;100.00;102023.16;4978072;28;20679;-71
2023/05/08 01:43:07;;;;;;;;;;;;;;;13.76;100.00;102027.69;4976733;28;19918;-71
2023/05/08 01:45:36;;;;;;;;;;;;;;;13.77;100.00;102023.16;4981773;28;19928;-71
2023/05/08 01:48:06;;;;;;;;;;;;;;;13.77;100.00;102023.16;4983012;28;20352;-71
2023/05/08 01:50:33;;;;;;;;;;;;;;;13.80;100.00;102033.72;4961775;28;20326;-71
2023/05/08 01:53:02;;;;;;;;;;;;;;;13.82;100.00;102025.50;4980189;28;19921;-71
2023/05/08 01:55:32;;;;;;;;;;;;;;;13.82;100.00;102025.50;4981059;28;19922;-71
2023/05/08 01:57:58;;;;;;;;;;;;;;;13.79;100.00;102019.38;4977013;28;19921;-71
2023/05/08 02:00:23;;;;;;;;;;;;;;;13.74;100.00;102017.97;4981724;28;19941;-71
2023/05/08 02:02:48;;;;;;;;;;;;;;;13.72;100.00;102028.88;4977773;28;19921;-71
2023/05/08 02:05:13;;;;;;;;;;;;;;;13.68;100.00;102027.38;4979976;28;19929;-71
2023/05/08 02:07:39;;;;;;;;;;;;;;;13.69;100.00;102029.09;4977308;28;20396;-71
2023/05/08 02:10:04;;;;;;;;;;;;;;;13.71;100.00;102029.84;4979662;28;20408;-71
2023/05/08 02:12:30;;;;;;;;;;;;;;;13.72;100.00;102030.72;4980939;28;19925;-71
2023/05/08 02:14:56;;;;;;;;;;;;;;;13.76;100.00;102037.63;4980045;28;19925;-71
2023/05/08 02:17:22;;;;;;;;;;;;;;;13.77;100.00;102040.19;4982769;28;19963;-71
2023/05/08 02:19:47;;;;;;;;;;;;;;;13.77;100.00;102033.97;4962418;28;20379;-71
2023/05/08 02:22:12;;;;;;;;;;;;;;;13.73;100.00;102032.44;4959662;28;19921;-71
2023/05/08 02:24:38;;;;;;;;;;;;;;;13.72;100.00;102028.88;4979624;28;20344;-71
2023/05/08 02:27:03;;;;;;;;;;;;;;;13.71;100.00;102039.78;4982477;28;20318;-71
2023/05/08 02:29:29;;;;;;;;;;;;;;;13.63;100.00;102034.94;4974849;28;19967;-71
2023/05/08 02:31:54;;;;;;;;;;;;;;;13.57;100.00;102041.63;4980438;28;19922;-71
2023/05/08 02:34:20;;;;;;;;;;;;;;;13.48;100.00;102040.47;4978759;28;20395;-71
2023/05/08 02:36:45;;;;;;;;;;;;;;;13.47;100.00;102052.22;4980193;28;19933;-71
2023/05/08 02:39:11;;;;;;;;;;;;;;;13.51;100.00;102044.75;4959872;28;19921;-71
2023/05/08 02:41:36;;;;;;;;;;;;;;;13.54;100.00;102049.94;4977331;28;20497;-71
2023/05/08 02:44:01;;;;;;;;;;;;;;;13.57;100.00;102046.19;4977915;28;20029;-70
2023/05/08 02:46:31;;;;;;;;;;;;;;;13.62;100.00;102050.25;4963497;28;19921;-71
2023/05/08 02:49:00;;;;;;;;;;;;;;;13.64;100.00;102033.94;4959616;28;20365;-71
2023/05/08 02:51:27;;;;;;;;;;;;;;;13.59;100.00;102046.94;4981159;28;20270;-71
2023/05/08 02:53:57;;;;;;;;;;;;;;;13.54;100.00;102041.00;4979575;28;20301;-71
2023/05/08 02:56:29;;;;;;;;;;;;;;;13.54;100.00;102039.16;4982009;28;19921;-71
2023/05/08 02:58:58;;;;;;;;;;;;;;;13.55;100.00;102042.72;4972549;28;19928;-71
2023/05/08 03:01:25;;;;;;;;;;;;;;;13.57;100.00;102041.63;4977202;28;19918;-70
2023/05/08 03:03:52;;;;;;;;;;;;;;;13.61;100.00;102045.84;4978604;28;19921;-70
2023/05/08 03:06:18;;;;;;;;;;;;;;;13.60;100.00;102045.97;4964695;28;19957;-71
2023/05/08 03:08:43;;;;;;;;;;;;;;;13.60;100.00;102037.88;4978363;28;20372;-71
2023/05/08 03:11:15;;;;;;;;;;;;;;;13.58;100.00;102039.81;4977735;28;19928;-71
2023/05/08 03:13:41;;;;;;;;;;;;;;;13.55;100.00;102040.03;4952230;28;20000;-71
2023/05/08 03:16:08;;;;;;;;;;;;;;;13.54;100.00;102043.69;4982158;28;19921;-71
2023/05/08 03:18:54;;;;;;;;;;;;;;;13.47;100.00;102041.44;4960718;28;19921;-70
2023/05/08 03:21:19;;;;;;;;;;;;;;;13.49;100.00;102049.44;4974698;28;19925;-71
2023/05/08 03:23:45;;;;;;;;;;;;;;;13.48;100.00;102045.84;4979385;28;20316;-71
2023/05/08 03:26:11;;;;;;;;;;;;;;;13.48;100.00;102042.31;4980098;28;19925;-70
2023/05/08 03:28:36;;;;;;;;;;;;;;;13.44;100.00;102047.03;4977149;28;19968;-71
2023/05/08 03:31:01;;;;;;;;;;;;;;;13.44;100.00;102043.50;4962249;28;19922;-71
2023/05/08 03:33:26;;;;;;;;;;;;;;;13.37;100.00;102043.03;4977007;28;19964;-70
2023/05/08 03:35:52;;;;;;;;;;;;;;;13.35;100.00;102050.38;4957399;28;20116;-70
2023/05/08 03:38:17;;;;;;;;;;;;;;;13.34;100.00;102038.72;4962676;28;19976;-71
2023/05/08 03:40:42;;;;;;;;;;;;;;;13.34;100.00;102040.56;4978043;28;19930;-70
2023/05/08 03:43:08;;;;;;;;;;;;;;;13.37;100.00;102037.66;4964347;28;20665;-71
2023/05/08 03:45:34;;;;;;;;;;;;;;;13.38;100.00;102039.34;4967785;28;20103;-71
2023/05/08 03:47:59;;;;;;;;;;;;;;;13.31;100.00;102038.91;4961128;28;19918;-70
2023/05/08 03:50:25;;;;;;;;;;;;;;;13.31;100.00;102030.81;4972452;28;19917;-71
2023/05/08 03:52:50;;;;;;;;;;;;;;;13.31;100.00;102030.81;4967120;28;19932;-70
2023/05/08 03:55:15;;;;;;;;;;;;;;;13.31;100.00;102028.13;4971661;28;19944;-71
2023/05/08 03:57:54;;;;;;;;;;;;;;;13.27;100.00;102029.31;4971330;28;19921;-70
2023/05/08 04:00:21;;;;;;;;;;;;;;;13.23;100.00;102030.53;4992692;28;19930;-71
2023/05/08 04:02:47;;;;;;;;;;;;;;;13.23;100.00;102030.53;4973370;28;20016;-71
2023/05/08 04:05:19;;;;;;;;;;;;;;;13.18;100.00;102030.81;4980165;28;20040;-71
2023/05/08 04:08:02;;;;;;;;;;;;;;;12.98;100.00;101999.84;4971106;28;19921;-71
2023/05/08 04:10:40;;;;;;;;;;;;;;;13.15;100.00;102028.34;4967130;28;20406;-70
2023/05/08 04:13:06;;;;;;;;;;;;;;;13.13;100.00;102035.66;4986542;28;19929;-70
2023/05/08 04:15:32;;;;;;;;;;;;;;;13.09;100.00;102039.59;4987086;28;19921;-71
2023/05/08 04:17:58;;;;;;;;;;;;;;;13.00;100.00;102046.44;4970767;28;20104;-71
2023/05/08 04:20:25;;;;;;;;;;;;;;;12.97;100.00;102045.81;4962989;28;19934;-70
2023/05/08 04:22:50;;;;;;;;;;;;;;;12.92;100.00;102053.34;4969055;28;19917;-71
2023/05/08 04:25:16;;;;;;;;;;;;;;;12.89;100.00;102054.44;4987681;28;20398;-70
2023/05/08 04:27:42;;;;;;;;;;;;;;;12.82;100.00;102053.09;4985839;28;19913;-71
2023/05/08 04:30:08;;;;;;;;;;;;;;;12.78;100.00;102041.69;4967944;28;20963;-71
2023/05/08 04:32:33;;;;;;;;;;;;;;;12.77;100.00;102047.16;4992339;28;19963;-71
2023/05/08 04:34:59;;;;;;;;;;;;;;;12.80;100.00;102041.56;4973844;28;19921;-71
2023/05/08 04:37:25;;;;;;;;;;;;;;;12.83;100.00;102044.06;4971132;28;20048;-71
2023/05/08 04:39:50;;;;;;;;;;;;;;;12.78;100.00;102046.19;4970898;28;19925;-71
2023/05/08 04:42:16;;;;;;;;;;;;;;;12.74;100.00;102048.25;4960728;28;20468;-71
2023/05/08 04:44:41;;;;;;;;;;;;;;;12.73;100.00;102044.66;4991134;28;19925;-70
2023/05/08 04:47:06;;;;;;;;;;;;;;;12.74;100.00;102059.03;4979747;28;19969;-70
2023/05/08 04:49:31;;;;;;;;;;;;;;;12.76;100.00;102059.78;4982840;28;20020;-70
2023/05/08 04:51:56;;;;;;;;;;;;;;;12.80;100.00;102060.44;4966842;28;19995;-71
2023/05/08 04:54:22;;;;;;;;;;;;;;;12.83;100.00;102062.94;4988417;28;19927;-70
2023/05/08 04:56:47;;;;;;;;;;;;;;;12.82;100.00;102061.19;4990095;28;20423;-70
2023/05/08 04:59:12;;;;;;;;;;;;;;;12.81;100.00;102063.03;4966855;28;20381;-70
2023/05/08 05:01:37;;;;;;;;;;;;;;;12.83;100.00;102061.09;4969888;28;20380;-70
2023/05/08 05:04:03;;;;;;;;;;;;;;;12.84;100.00;102068.22;4969074;28;19921;-70
2023/05/08 05:06:28;;;;;;;;;;;;;;;12.86;100.00;102070.81;4972053;28;19976;-71
2023/05/08 05:08:53;;;;;;;;;;;;;;;12.88;100.00;102069.72;4985108;28;19922;-70
2023/05/08 05:11:18;;;;;;;;;;;;;;;12.98;100.00;102075.34;4989894;28;19952;-70
2023/05/08 05:13:43;;;;;;;;;;;;;;;13.08;100.00;102078.28;4983542;28;20012;-70
2023/05/08 05:16:09;;;;;;;;;;;;;;;13.12;100.00;102076.25;4973870;28;19917;-70
2023/05/08 05:18:34;;;;;;;;;;;;;;;13.22;100.00;102082.72;4972287;28;19953;-70
2023/05/08 05:20:59;;;;;;;;;;;;;;;13.24;100.00;102082.63;4985033;28;20012;-70
2023/05/08 05:23:24;;;;;;;;;;;;;;;13.32;100.00;102078.41;4991006;28;19925;-70
2023/05/08 05:25:49;;;;;;;;;;;;;;;13.35;100.00;102082.75;4990060;28;19961;-70
2023/05/08 05:28:15;;;;;;;;;;;;;;;13.41;100.00;102079.63;4984674;28;19922;-70
2023/05/08 05:30:40;;;;;;;;;;;;;;;13.43;100.00;102077.69;4985116;28;19933;-70
2023/05/08 05:33:05;;;;;;;;;;;;;;;13.43;100.00;102083.06;4972632;28;19972;-70
2023/05/08 05:35:30;;;;;;;;;;;;;;;13.44;100.00;102084.81;4987730;28;20009;-70
2023/05/08 05:37:56;;;;;;;;;;;;;;;13.48;100.00;102086.31;4987313;28;19926;-70
2023/05/08 05:40:21;;;;;;;;;;;;;;;13.58;100.00;102091.94;4980904;28;19932;-70
2023/05/08 05:42:52;;;;;;;;;;;;;;;13.61;100.00;102096.25;4967142;28;19931;-70
2023/05/08 05:45:17;;;;;;;;;;;;;;;13.80;100.00;102090.38;4972696;28;19921;-70
2023/05/08 05:47:48;;;;;;;;;;;;;;;13.98;100.00;102085.50;4990810;28;19928;-71
2023/05/08 05:50:13;;;;;;;;;;;;;;;14.10;100.00;102092.72;4983213;28;19977;-70
2023/05/08 05:52:39;;;;;;;;;;;;;;;14.25;100.00;102097.97;4979937;28;20020;-70
2023/05/08 05:55:04;;;;;;;;;;;;;;;14.31;100.00;102102.94;4985519;28;19932;-71
2023/05/08 05:57:29;;;;;;;;;;;;;;;14.38;100.00;102106.03;4961379;28;19968;-71
2023/05/08 05:59:55;;;;;;;;;;;;;;;14.52;100.00;102102.31;4982420;28;19932;-70
2023/05/08 06:02:20;;;;;;;;;;;;;;;14.53;100.00;102107.59;4983392;28;19922;-71
2023/05/08 06:04:45;;;;;;;;;;;;;;;14.51;100.00;102103.28;4987197;28;19921;-71
2023/05/08 06:07:10;;;;;;;;;;;;;;;14.42;100.00;102083.22;4989165;28;19922;-71
2023/05/08 06:09:36;;;;;;;;;;;;;;;14.48;100.00;102103.50;4982900;28;20042;-71
2023/05/08 06:12:01;;;;;;;;;;;;;;;14.51;100.00;102098.75;4985584;28;19996;-71
2023/05/08 06:14:26;;;;;;;;;;;;;;;14.71;100.00;102099.13;4989098;28;19925;-70
2023/05/08 06:16:51;;;;;;;;;;;;;;;14.82;100.00;102093.78;4981917;28;20335;-70
2023/05/08 06:19:16;;;;;;;;;;;;;;;14.83;100.00;102097.31;4967390;28;20478;-71
2023/05/08 06:21:42;;;;;;;;;;;;;;;14.94;100.00;102091.09;4967214;28;20393;-70
2023/05/08 06:24:07;;;;;;;;;;;;;;;14.97;100.00;102099.81;4965213;28;20415;-71
2023/05/08 06:26:32;;;;;;;;;;;;;;;14.97;100.00;102091.72;4963723;28;20382;-72
2023/05/08 06:28:57;;;;;;;;;;;;;;;15.06;100.00;102095.56;4961802;28;19944;-71
2023/05/08 06:31:23;;;;;;;;;;;;;;;15.12;100.00;102094.22;4971612;28;20349;-73
2023/05/08 06:33:48;;;;;;;;;;;;;;;15.23;100.00;102094.22;4982050;28;20395;-73
2023/05/08 06:36:13;;;;;;;;;;;;;;;15.27;100.00;102098.44;4964776;28;20369;-73
2023/05/08 06:38:38;;;;;;;;;;;;;;;15.31;100.00;102099.06;4974582;28;20656;-71
2023/05/08 06:41:05;;;;;;;;;;;;;;;15.35;100.00;102096.97;4960246;28;20353;-71
2023/05/08 06:43:30;;;;;;;;;;;;;;;15.27;100.00;102093.03;4979348;28;19926;-71
2023/05/08 06:45:56;;;;;;;;;;;;;;;15.57;100.00;102090.75;4980248;28;19926;-71
2023/05/08 06:48:21;;;;;;;;;;;;;;;15.75;100.00;102091.13;4976975;28;20008;-71
2023/05/08 06:50:47;;;;;;;;;;;;;;;15.66;100.00;102091.84;4977670;28;20052;-71
2023/05/08 06:53:12;;;;;;;;;;;;;;;15.93;100.00;102096.91;4980350;28;19922;-71
2023/05/08 06:55:37;;;;;;;;;;;;;;;15.99;100.00;102085.59;4981869;28;19921;-71
2023/05/08 06:58:02;;;;;;;;;;;;;;;15.88;100.00;102094.59;4977945;28;20348;-71
2023/05/08 07:00:28;;;;;;;;;;;;;;;15.77;100.00;102096.41;4978090;28;20353;-72
2023/05/08 07:02:53;;;;;;;;;;;;;;;15.79;100.00;102094.44;4972489;28;19957;-71
2023/05/08 07:05:18;;;;;;;;;;;;;;;15.80;100.00;102093.44;4980853;28;20012;-72
2023/05/08 07:07:44;;;;;;;;;;;;;;;15.86;100.00;102098.41;4982231;28;20016;-72
2023/05/08 07:10:09;;;;;;;;;;;;;;;15.88;100.00;102101.88;4976138;28;19926;-71
2023/05/08 07:12:34;;;;;;;;;;;;;;;15.90;100.00;102097.16;4976041;28;19961;-71
2023/05/08 07:14:59;;;;;;;;;;;;;;;15.90;100.00;102105.28;4962798;28;20307;-72
2023/05/08 07:17:25;;;;;;;;;;;;;;;16.11;100.00;102104.56;4964196;28;19922;-71
2023/05/08 07:19:50;;;;;;;;;;;;;;;16.16;100.00;102102.31;4973844;28;19925;-71
2023/05/08 07:22:16;;;;;;;;;;;;;;;16.28;100.00;102106.72;4981912;28;20400;-71
2023/05/08 07:24:41;;;;;;;;;;;;;;;16.11;100.00;102110.81;4978058;28;20343;-71
2023/05/08 07:27:07;;;;;;;;;;;;;;;16.11;100.00;102105.41;4980280;28;20389;-72
2023/05/08 07:29:34;;;;;;;;;;;;;;;16.13;100.00;102089.03;4998218;28;19927;-72
2023/05/08 07:32:00;;;;;;;;;;;;;;;16.21;100.00;102104.66;4978758;28;19922;-72
2023/05/08 07:34:25;;;;;;;;;;;;;;;16.30;100.00;102106.59;4977065;28;20270;-72
2023/05/08 07:36:50;;;;;;;;;;;;;;;16.08;100.00;102111.06;4973284;28;20420;-72
2023/05/08 07:39:15;;;;;;;;;;;;;;;15.98;100.00;102110.09;4977866;28;20005;-72
2023/05/08 07:41:40;;;;;;;;;;;;;;;16.00;100.00;102111.69;4963343;28;19967;-72
2023/05/08 07:44:06;;;;;;;;;;;;;;;15.99;100.00;102123.50;4977028;28;19996;-71
2023/05/08 07:46:31;;;;;;;;;;;;;;;15.89;100.00;102120.69;4985624;28;19922;-72
2023/05/08 07:48:56;;;;;;;;;;;;;;;15.79;100.00;102133.19;4976682;28;19933;-72
2023/05/08 07:51:21;;;;;;;;;;;;;;;15.88;100.00;102132.50;4981445;28;19957;-72
2023/05/08 07:53:48;;;;;;;;;;;;;;;16.07;100.00;102135.56;4969407;28;20400;-71
2023/05/08 07:56:13;;;;;;;;;;;;;;;16.13;100.00;102133.22;4989883;28;19921;-71
2023/05/08 07:58:41;;;;;;;;;;;;;;;16.23;100.00;102137.91;4984903;28;20412;-72
2023/05/08 08:01:06;;;;;;;;;;;;;;;16.31;100.00;102128.16;4988655;28;19930;-71
2023/05/08 08:03:31;;;;;;;;;;;;;;;16.37;100.00;102129.50;4985441;28;19944;-72
2023/05/08 08:05:57;;;;;;;;;;;;;;;16.30;100.00;102115.59;4986424;28;20020;-72
2023/05/08 08:08:22;;;;;;;;;;;;;;;16.62;100.00;102122.03;4985732;28;19922;-72
2023/05/08 08:10:47;;;;;;;;;;;;;;;16.93;100.00;102122.16;4973999;28;20412;-72
2023/05/08 08:13:12;;;;;;;;;;;;;;;16.96;100.00;102097.53;4983189;28;19921;-72
2023/05/08 08:15:37;;;;;;;;;;;;;;;17.34;100.00;102117.81;4973082;28;19945;-72
2023/05/08 08:18:03;;;;;;;;;;;;;;;17.18;100.00;102114.69;4985587;28;19975;-72
2023/05/08 08:20:28;;;;;;;;;;;;;;;17.13;100.00;102106.94;4979625;28;20291;-72
2023/05/08 08:22:53;;;;;;;;;;;;;;;17.20;100.00;102102.72;4984594;28;20284;-72
2023/05/08 08:25:18;;;;;;;;;;;;;;;17.46;100.00;102098.72;4989290;28;20404;-72
2023/05/08 08:27:43;;;;;;;;;;;;;;;17.64;100.00;102093.53;4984235;28;19921;-72
2023/05/08 08:30:09;;;;;;;;;;;;;;;18.03;100.00;102095.56;4981733;28;20246;-72
2023/05/08 08:32:34;;;;;;;;;;;;;;;18.04;100.00;102091.84;4989029;28;20035;-73
2023/05/08 08:34:59;;;;;;;;;;;;;;;17.90;100.00;102088.47;4988611;28;20076;-73
2023/05/08 08:37:25;;;;;;;;;;;;;;;18.18;100.00;102077.00;4984522;28;20292;-72
2023/05/08 08:39:50;;;;;;;;;;;;;;;18.41;100.00;102073.03;4987204;28;19948;-73
2023/05/08 08:42:15;;;;;;;;;;;;;;;18.78;100.00;102070.63;4983967;28;19929;-72
2023/05/08 08:44:41;;;;;;;;;;;;;;;18.65;100.00;102065.50;4987398;28;19921;-73
2023/05/08 08:47:06;;;;;;;;;;;;;;;18.94;100.00;102065.47;4990789;28;19930;-72
2023/05/08 08:49:33;;;;;;;;;;;;;;;18.97;100.00;102069.78;4989117;28;19921;-74
2023/05/08 08:52:01;;;;;;;;;;;;;;;19.34;100.00;102066.28;4993361;28;19922;-72
2023/05/08 08:54:27;;;;;;;;;;;;;;;19.96;100.00;102071.22;4968176;28;20321;-72
2023/05/08 08:56:52;;;;;;;;;;;;;;;20.16;100.00;102055.59;4988422;28;20420;-73
2023/05/08 08:59:17;;;;;;;;;;;;;;;20.38;100.00;102073.38;4977193;28;20273;-72
2023/05/08 09:01:44;;;;;;;;;;;;;;;20.53;100.00;102070.09;4985855;28;20335;-72
2023/05/08 09:04:10;;;;;;;;;;;;;;;20.95;100.00;102065.91;4971361;28;20333;-72
2023/05/08 09:06:35;;;;;;;;;;;;;;;20.74;100.00;102064.34;4984507;28;19925;-72
2023/05/08 09:09:01;;;;;;;;;;;;;;;20.25;100.00;102070.19;4981223;28;20303;-73
2023/05/08 09:11:26;;;;;;;;;;;;;;;19.73;100.00;102073.44;4984313;28;19961;-72
2023/05/08 09:13:51;;;;;;;;;;;;;;;19.72;100.00;102055.38;4989760;28;20364;-72
2023/05/08 09:16:16;;;;;;;;;;;;;;;19.70;100.00;102066.44;4987348;28;19929;-72
2023/05/08 09:18:42;;;;;;;;;;;;;;;19.53;100.00;102065.34;4988121;28;19960;-72
2023/05/08 09:21:07;;;;;;;;;;;;;;;19.44;100.00;102072.56;4986951;28;19929;-72
2023/05/08 09:23:34;;;;;;;;;;;;;;;19.34;100.00;102072.56;4992251;28;19956;-72
2023/05/08 09:26:00;;;;;;;;;;;;;;;19.27;100.00;102081.47;4987573;28;19925;-72
2023/05/08 09:28:25;;;;;;;;;;;;;;;19.01;100.00;102079.38;4990386;28;19928;-72
2023/05/08 09:30:54;;;;;;;;;;;;;;;18.79;100.00;102078.66;4988627;28;19922;-72
2023/05/08 09:33:20;;;;;;;;;;;;;;;18.65;100.00;102077.22;4990274;28;19994;-72
2023/05/08 09:35:49;;;;;;;;;;;;;;;18.64;100.00;102082.81;4981992;28;20077;-72
2023/05/08 09:38:29;;;;;;;;;;;;;;;18.35;100.00;102080.91;4986049;28;20329;-72
2023/05/08 09:41:07;;;;;;;;;;;;;;;18.40;100.00;102089.50;4981709;28;20285;-72
2023/05/08 09:43:32;;;;;;;;;;;;;;;18.42;100.00;102080.22;4990971;28;19928;-72
2023/05/08 09:45:58;;;;;;;;;;;;;;;18.34;100.00;102084.63;4990966;28;19921;-72
2023/05/08 09:48:36;;;;;;;;;;;;;;;18.32;100.00;102086.63;4986500;28;20020;-72
2023/05/08 09:51:05;;;;;;;;;;;;;;;18.49;100.00;102090.53;4984041;28;19927;-72
2023/05/08 09:53:31;;;;;;;;;;;;;;;18.44;100.00;102093.66;4989942;28;19926;-72
2023/05/08 09:55:56;;;;;;;;;;;;;;;18.18;100.00;102098.75;4992771;28;19932;-72
2023/05/08 09:58:22;;;;;;;;;;;;;;;18.40;100.00;102092.25;4981461;28;19980;-72
2023/05/08 10:00:47;;;;;;;;;;;;;;;18.56;100.00;102092.53;4987659;28;20064;-73
2023/05/08 10:03:12;;;;;;;;;;;;;;;18.41;100.00;102092.06;4975039;28;20384;-72
2023/05/08 10:05:37;;;;;;;;;;;;;;;18.65;100.00;102092.69;4991739;28;20329;-72
2023/05/08 10:08:19;;;;;;;;;;;;;;;18.52;100.00;102090.25;4987410;28;20472;-72
2023/05/08 10:10:44;;;;;;;;;;;;;;;18.80;100.00;102093.97;4979634;28;20353;-72
2023/05/08 10:13:10;;;;;;;;;;;;;;;18.87;100.00;102099.69;4985690;28;20388;-72
2023/05/08 10:15:36;;;;;;;;;;;;;;;19.01;100.00;102095.69;4968940;28;20825;-72
2023/05/08 10:18:03;;;;;;;;;;;;;;;19.13;100.00;102090.97;4982890;28;19917;-72
2023/05/08 10:20:29;;;;;;;;;;;;;;;19.46;100.00;102094.19;4968965;28;19933;-72
2023/05/08 10:22:55;;;;;;;;;;;;;;;20.19;100.00;102090.72;4992942;28;20454;-72
2023/05/08 10:25:21;;;;;;;;;;;;;;;20.68;100.00;102084.06;4972569;28;20016;-73
2023/05/08 10:27:47;;;;;;;;;;;;;;;21.35;100.00;102089.06;4983258;28;20379;-72
2023/05/08 10:30:13;;;;;;;;;;;;;;;21.37;100.00;102097.97;4984663;28;20285;-73
2023/05/08 10:32:42;;;;;;;;;;;;;;;20.94;100.00;102094.22;4986798;28;19933;-73
2023/05/08 10:35:08;;;;;;;;;;;;;;;21.27;100.00;102098.06;4988572;28;19926;-72
2023/05/08 10:37:34;;;;;;;;;;;;;;;21.93;100.00;102091.28;4963234;28;19953;-72
2023/05/08 10:40:00;;;;;;;;;;;;;;;22.11;100.00;102085.72;4992528;28;19932;-72
2023/05/08 10:42:25;;;;;;;;;;;;;;;21.86;100.00;102074.69;4980543;28;19922;-72
2023/05/08 10:44:50;;;;;;;;;;;;;;;21.93;100.00;102080.34;4965804;28;20045;-72
2023/05/08 10:47:42;;;;;;;;;;;;;;;22.13;100.00;102076.31;4981802;28;20012;-72
2023/05/08 10:50:16;;;;;;;;;;;;;;;20.99;100.00;102075.50;4972137;28;20427;-73
2023/05/08 10:52:42;;;;;;;;;;;;;;;21.09;100.00;102070.81;4985059;28;19921;-72
2023/05/08 10:55:18;;;;;;;;;;;;;;;20.74;100.00;102067.06;4983339;28;19968;-73
2023/05/08 10:58:02;;;;;;;;;;;;;;;20.73;100.00;102067.25;4982388;28;19922;-73
2023/05/08 11:00:31;;;;;;;;;;;;;;;21.40;100.00;102072.19;4988914;28;19929;-73
2023/05/08 11:03:03;;;;;;;;;;;;;;;21.46;100.00;102068.81;4989588;28;19928;-73
2023/05/08 11:05:29;;;;;;;;;;;;;;;22.15;100.00;102068.78;4981640;28;19979;-73
2023/05/08 11:07:58;;;;;;;;;;;;;;;22.74;96.39;102062.41;4968569;28;20016;-71
2023/05/08 11:10:29;;;;;;;;;;;;;;;23.77;100.00;102057.28;4980172;28;20007;-72
2023/05/08 11:12:54;;;;;;;;;;;;;;;24.31;82.97;102047.44;4980326;28;20035;-72
2023/05/08 11:15:21;;;;;;;;;;;;;;;24.73;87.81;102049.88;4988626;28;19917;-71
2023/05/08 11:17:52;;;;;;;;;;;;;;;25.32;78.85;102054.63;4980504;28;20386;-72
2023/05/08 11:20:20;;;;;;;;;;;;;;;25.19;79.14;102048.94;4985893;28;20060;-73
2023/05/08 11:22:48;;;;;;;;;;;;;;;24.98;80.89;102042.28;4983097;28;20277;-71
2023/05/08 11:25:13;;;;;;;;;;;;;;;24.79;83.44;102039.00;4983032;28;20009;-72
2023/05/08 11:27:40;;;;;;;;;;;;;;;24.13;79.94;102041.34;4967291;28;19928;-72
2023/05/08 11:30:24;;;;;;;;;;;;;;;23.39;86.44;102037.88;4965000;28;19922;-72
2023/05/08 11:33:05;;;;;;;;;;;;;;;23.71;95.87;102036.06;4981735;28;19983;-72
2023/05/08 11:35:50;;;;;;;;;;;;;;;24.50;88.37;102026.00;4981941;28;19928;-72
2023/05/08 11:38:19;;;;;;;;;;;;;;;25.63;77.51;102028.88;4979271;28;19921;-72
2023/05/08 11:40:49;;;;;;;;;;;;;;;26.49;72.61;102022.66;4981224;28;19933;-72
2023/05/08 11:43:18;;;;;;;;;;;;;;;26.08;71.28;102025.19;4979594;28;19975;-72
2023/05/08 11:45:43;;;;;;;;;;;;;;;25.59;73.24;102016.53;4977797;28;19956;-72
2023/05/08 11:48:08;;;;;;;;;;;;;;;25.92;66.36;102023.53;4967580;28;20383;-72
2023/05/08 11:50:34;;;;;;;;;;;;;;;25.62;69.59;102020.81;4981654;28;19929;-72
2023/05/08 11:52:59;;;;;;;;;;;;;;;26.03;67.40;102021.13;4984638;28;20814;-72
2023/05/08 11:55:24;;;;;;;;;;;;;;;25.04;73.94;102016.78;4978956;28;20349;-73
2023/05/08 11:57:53;;;;;;;;;;;;;;;23.73;82.50;102005.72;4983595;28;20564;-73
2023/05/08 12:00:18;;;;;;;;;;;;;;;23.42;97.53;102010.13;4982095;28;20004;-72
2023/05/08 12:02:45;;;;;;;;;;;;;;;22.64;86.59;102011.63;4987321;28;20253;-72
2023/05/08 12:05:10;;;;;;;;;;;;;;;21.95;93.57;102008.09;4983515;28;20400;-73
2023/05/08 12:07:43;;;;;;;;;;;;;;;21.30;97.44;102017.69;4985033;28;19921;-72
2023/05/08 12:10:08;;;;;;;;;;;;;;;21.25;100.00;102020.03;4982490;28;19944;-71
2023/05/08 12:12:37;;;;;;;;;;;;;;;21.99;100.00;102006.72;4977402;28;19944;-72
2023/05/08 12:15:07;;;;;;;;;;;;;;;22.75;100.00;102003.06;4984076;28;19929;-73
2023/05/08 12:17:32;;;;;;;;;;;;;;;23.69;90.55;102009.88;4987837;28;20384;-73
2023/05/08 12:20:02;;;;;;;;;;;;;;;24.37;82.89;102005.50;4982235;28;19929;-72
2023/05/08 12:22:28;;;;;;;;;;;;;;;25.38;69.39;102017.31;4988372;28;20936;-72
2023/05/08 12:24:53;;;;;;;;;;;;;;;25.93;66.76;102015.06;4984537;28;20013;-72
2023/05/08 12:27:18;;;;;;;;;;;;;;;26.19;74.78;102006.31;4987041;28;19928;-73